createdAt,value
2018-10-09T00:01:29.034Z,12.40
2018-10-09T00:03:57.801Z,12.20
2018-10-09T00:06:26.100Z,12.20
2018-10-09T00:08:55.221Z,12.20
2018-10-09T00:11:23.477Z,12.20
2018-10-09T00:13:51.765Z,12.20
2018-10-09T00:16:20.575Z,12.20
2018-10-09T00:18:48.918Z,12.20
2018-10-09T00:21:17.194Z,12.20
2018-10-09T00:23:45.521Z,12.20
2018-10-09T00:26:14.496Z,12.10
2018-10-09T00:28:42.722Z,12.10
2018-10-09T00:31:10.985Z,12.10
2018-10-09T00:33:39.296Z,12.10
2018-10-09T00:36:08.292Z,12.10
2018-10-09T00:38:37.017Z,12.00
2018-10-09T00:41:05.298Z,11.90
2018-10-09T00:43:33.582Z,11.90
2018-10-09T00:46:01.892Z,11.90
2018-10-09T00:48:30.191Z,11.90
2018-10-09T00:50:58.922Z,11.90
2018-10-09T00:53:27.743Z,11.90
2018-10-09T00:55:56.029Z,11.90
2018-10-09T00:58:24.317Z,12.00
2018-10-09T01:00:52.626Z,11.90
2018-10-09T01:03:22.154Z,12.00
2018-10-09T01:05:50.403Z,11.90
2018-10-09T01:08:18.754Z,11.90
2018-10-09T01:10:47.033Z,11.80
2018-10-09T01:13:15.303Z,11.80
2018-10-09T01:15:44.156Z,11.80
2018-10-09T01:18:12.424Z,11.80
2018-10-09T01:20:40.722Z,11.80
2018-10-09T01:23:09.022Z,11.70
2018-10-09T01:25:37.316Z,11.70
2018-10-09T01:28:06.025Z,11.70
2018-10-09T01:30:35.006Z,11.70
2018-10-09T01:33:03.638Z,11.70
2018-10-09T01:35:32.846Z,11.70
2018-10-09T01:38:01.204Z,11.60
2018-10-09T01:40:30.171Z,11.70
2018-10-09T01:42:58.482Z,11.80
2018-10-09T01:45:26.775Z,11.60
2018-10-09T01:47:55.116Z,11.70
2018-10-09T01:50:23.725Z,11.80
2018-10-09T01:52:52.574Z,11.70
2018-10-09T01:55:21.700Z,11.70
2018-10-09T01:57:50.005Z,11.60
2018-10-09T02:00:18.314Z,11.60
2018-10-09T02:02:47.247Z,11.50
2018-10-09T02:05:15.545Z,11.50
2018-10-09T02:07:44.573Z,11.50
2018-10-09T02:10:12.839Z,11.60
2018-10-09T02:12:41.090Z,11.60
2018-10-09T02:15:09.422Z,11.60
2018-10-09T02:17:38.190Z,11.60
2018-10-09T02:20:06.493Z,11.60
2018-10-09T02:22:34.791Z,11.50
2018-10-09T02:25:03.867Z,11.50
2018-10-09T02:27:32.626Z,11.50
2018-10-09T02:30:00.915Z,11.40
2018-10-09T02:32:29.167Z,11.40
2018-10-09T02:34:58.015Z,11.40
2018-10-09T02:37:26.319Z,11.40
2018-10-09T02:39:54.672Z,11.40
2018-10-09T02:42:22.980Z,11.40
2018-10-09T02:44:51.264Z,11.40
2018-10-09T02:47:19.601Z,11.30
2018-10-09T02:49:48.994Z,11.40
2018-10-09T02:52:17.478Z,11.30
2018-10-09T02:54:45.773Z,11.20
2018-10-09T02:57:14.056Z,11.20
2018-10-09T02:59:42.376Z,11.20
2018-10-09T03:02:11.565Z,11.10
2018-10-09T03:04:39.846Z,11.00
2018-10-09T03:07:08.566Z,11.00
2018-10-09T03:09:37.136Z,11.00
2018-10-09T03:12:05.426Z,11.10
2018-10-09T03:14:33.803Z,11.10
2018-10-09T03:17:02.757Z,11.20
2018-10-09T03:19:31.580Z,11.20
2018-10-09T03:22:00.537Z,11.30
2018-10-09T03:24:29.524Z,11.40
2018-10-09T03:26:57.810Z,11.40
2018-10-09T03:29:26.597Z,11.40
2018-10-09T03:31:55.286Z,11.40
2018-10-09T03:34:23.597Z,11.40
2018-10-09T03:36:51.912Z,11.40
2018-10-09T03:39:20.234Z,11.30
2018-10-09T03:41:48.523Z,11.30
2018-10-09T03:44:16.884Z,11.30
2018-10-09T03:46:45.203Z,11.30
2018-10-09T03:49:13.473Z,11.30
2018-10-09T03:51:42.562Z,11.40
2018-10-09T03:54:10.838Z,11.50
2018-10-09T03:56:39.118Z,11.50
2018-10-09T03:59:07.450Z,11.30
2018-10-09T04:01:35.753Z,11.20
2018-10-09T04:04:04.421Z,11.30
2018-10-09T04:06:32.718Z,11.30
2018-10-09T04:09:01.625Z,11.40
2018-10-09T04:11:29.903Z,11.30
2018-10-09T04:13:58.174Z,11.20
2018-10-09T04:16:26.942Z,11.30
2018-10-09T04:18:55.677Z,11.30
2018-10-09T04:21:23.938Z,11.30
2018-10-09T04:23:52.193Z,11.30
2018-10-09T04:26:20.618Z,11.20
2018-10-09T04:28:49.357Z,11.30
2018-10-09T04:31:17.641Z,11.10
2018-10-09T04:33:45.920Z,10.90
2018-10-09T04:36:14.202Z,11.10
2018-10-09T04:38:42.493Z,11.10
2018-10-09T04:41:10.874Z,11.10
2018-10-09T04:43:39.190Z,11.00
2018-10-09T04:46:07.490Z,10.90
2018-10-09T04:48:35.759Z,10.80
2018-10-09T04:51:04.749Z,10.90
2018-10-09T04:53:33.026Z,11.00
2018-10-09T04:56:01.424Z,11.10
2018-10-09T04:58:29.869Z,11.00
2018-10-09T05:00:58.142Z,10.90
2018-10-09T05:03:26.687Z,10.90
2018-10-09T05:05:54.947Z,10.80
2018-10-09T05:08:23.789Z,10.80
2018-10-09T05:10:52.970Z,10.80
2018-10-09T05:13:21.300Z,10.90
2018-10-09T05:15:50.138Z,10.90
2018-10-09T05:18:18.445Z,10.90
2018-10-09T05:20:46.730Z,10.90
2018-10-09T05:23:15.110Z,10.80
2018-10-09T05:25:43.373Z,10.90
2018-10-09T05:28:12.498Z,10.80
2018-10-09T05:30:40.796Z,10.90
2018-10-09T05:33:09.066Z,10.90
2018-10-09T05:35:37.358Z,10.80
2018-10-09T05:38:05.638Z,10.80
2018-10-09T05:40:34.024Z,10.80
2018-10-09T05:43:02.377Z,10.80
2018-10-09T05:45:31.287Z,11.00
2018-10-09T05:47:59.567Z,11.10
2018-10-09T05:50:27.808Z,11.10
2018-10-09T05:52:57.073Z,11.00
2018-10-09T05:55:25.374Z,11.00
2018-10-09T05:57:53.698Z,11.10
2018-10-09T06:00:22.130Z,11.00
2018-10-09T06:02:51.076Z,11.10
2018-10-09T06:05:19.607Z,11.00
2018-10-09T06:07:48.374Z,11.00
2018-10-09T06:10:17.235Z,11.10
2018-10-09T06:12:45.530Z,11.10
2018-10-09T06:15:13.793Z,11.20
2018-10-09T06:17:42.442Z,11.20
2018-10-09T06:20:10.714Z,11.20
2018-10-09T06:22:39.062Z,11.20
2018-10-09T06:25:07.493Z,11.40
2018-10-09T06:27:36.290Z,11.40
2018-10-09T06:30:04.745Z,11.50
2018-10-09T06:32:33.095Z,11.60
2018-10-09T06:35:02.190Z,11.70
2018-10-09T06:37:30.497Z,11.60
2018-10-09T06:39:58.817Z,11.30
2018-10-09T06:42:27.167Z,11.10
2018-10-09T06:44:55.449Z,11.30
2018-10-09T07:22:01.821Z,12.30
2018-10-09T07:24:30.118Z,12.20
2018-10-09T07:26:58.420Z,12.00
2018-10-09T07:29:27.231Z,12.20
2018-10-09T07:31:55.499Z,12.20
2018-10-09T07:34:24.298Z,12.50
2018-10-09T07:36:52.574Z,12.70
2018-10-09T07:39:20.831Z,12.70
2018-10-09T07:41:49.162Z,12.80
2018-10-09T07:44:17.546Z,12.90
2018-10-09T07:46:45.818Z,12.80
2018-10-09T07:49:14.126Z,13.00
2018-10-09T07:51:43.205Z,13.20
2018-10-09T07:54:12.386Z,13.20
2018-10-09T07:56:41.544Z,12.90
2018-10-09T07:59:09.822Z,12.80
2018-10-09T08:01:38.142Z,12.70
2018-10-09T08:04:07.470Z,12.50
2018-10-09T08:06:35.754Z,12.70
2018-10-09T08:09:05.486Z,12.90
2018-10-09T08:11:33.773Z,12.90
2018-10-09T08:14:02.018Z,12.80
2018-10-09T08:16:30.786Z,12.90
2018-10-09T08:18:59.033Z,12.70
2018-10-09T08:21:28.028Z,13.00
2018-10-09T08:23:56.307Z,13.20
2018-10-09T08:26:24.616Z,13.30
2018-10-09T08:28:53.362Z,13.30
2018-10-09T08:31:21.630Z,13.00
2018-10-09T08:33:49.936Z,12.80
2018-10-09T08:36:18.230Z,12.80
2018-10-09T08:38:46.546Z,12.90
2018-10-09T08:41:15.011Z,12.80
2018-10-09T08:43:44.130Z,12.90
2018-10-09T08:46:12.470Z,13.00
2018-10-09T08:48:41.874Z,12.70
2018-10-09T08:51:10.906Z,12.50
2018-10-09T08:53:39.824Z,12.60
2018-10-09T08:56:08.190Z,12.80
2018-10-09T08:58:36.626Z,12.90
2018-10-09T09:01:05.399Z,12.90
2018-10-09T09:03:34.467Z,12.70
2018-10-09T09:06:02.769Z,12.60
2018-10-09T09:08:31.432Z,12.50
2018-10-09T09:10:59.722Z,12.60
2018-10-09T09:13:28.074Z,12.80
2018-10-09T09:15:56.665Z,12.80
2018-10-09T09:18:25.699Z,12.90
2018-10-09T09:20:54.036Z,13.10
2018-10-09T09:23:22.349Z,13.40
2018-10-09T09:25:50.714Z,13.50
2018-10-09T09:28:19.675Z,13.70
2018-10-09T09:30:47.973Z,13.80
2018-10-09T09:33:16.282Z,13.90
2018-10-09T09:35:44.581Z,13.90
2018-10-09T09:38:12.999Z,13.80
2018-10-09T09:40:41.914Z,13.70
2018-10-09T09:43:10.205Z,13.90
2018-10-09T09:45:38.516Z,13.90
2018-10-09T09:48:06.978Z,13.80
2018-10-09T09:50:35.357Z,13.60
2018-10-09T09:53:04.282Z,13.50
2018-10-09T09:55:32.590Z,13.90
2018-10-09T09:58:01.022Z,14.20
2018-10-09T10:00:34.461Z,14.30
2018-10-09T10:03:03.581Z,14.40
2018-10-09T10:05:32.186Z,14.40
2018-10-09T10:08:01.482Z,14.40
2018-10-09T10:10:29.766Z,14.60
2018-10-09T10:12:58.087Z,14.80
2018-10-09T10:15:27.395Z,14.70
2018-10-09T10:17:55.713Z,14.50
2018-10-09T10:20:24.150Z,14.50
2018-10-09T10:22:53.033Z,14.60
2018-10-09T10:25:21.483Z,14.90
2018-10-09T10:27:50.478Z,14.60
2018-10-09T10:30:18.810Z,14.90
2018-10-09T10:32:47.714Z,14.90
2018-10-09T10:35:15.969Z,15.00
2018-10-09T10:37:44.792Z,15.20
2018-10-09T10:40:13.094Z,15.40
2018-10-09T10:42:41.390Z,15.40
2018-10-09T10:45:09.680Z,15.60
2018-10-09T10:47:37.951Z,15.20
2018-10-09T10:50:06.404Z,15.30
2018-10-09T10:52:35.006Z,15.60
2018-10-09T10:55:03.314Z,16.10
2018-10-09T10:57:31.582Z,16.50
2018-10-09T10:59:59.858Z,16.50
2018-10-09T11:02:28.484Z,17.00
2018-10-09T11:04:57.656Z,17.20
2018-10-09T11:07:26.658Z,17.00
2018-10-09T11:09:54.955Z,17.10
2018-10-09T11:12:23.260Z,17.10
2018-10-09T11:14:51.589Z,17.20
2018-10-09T11:17:20.450Z,17.40
2018-10-09T11:19:48.718Z,17.20
2018-10-09T11:22:16.983Z,17.40
2018-10-09T11:24:45.950Z,17.70
2018-10-09T11:27:14.447Z,17.50
2018-10-09T11:29:42.715Z,17.70
2018-10-09T11:32:11.002Z,18.10
2018-10-09T11:34:39.386Z,18.00
2018-10-09T11:37:07.676Z,17.90
2018-10-09T11:39:36.034Z,18.00
2018-10-09T11:42:04.379Z,18.10
2018-10-09T11:44:32.598Z,18.40
2018-10-09T11:47:00.874Z,18.60
2018-10-09T11:49:29.170Z,18.40
2018-10-09T11:51:58.027Z,18.50
2018-10-09T11:54:26.876Z,18.30
2018-10-09T11:56:55.163Z,18.50
2018-10-09T11:59:23.472Z,18.60
2018-10-09T12:01:52.645Z,18.70
2018-10-09T12:04:21.182Z,18.80
2018-10-09T12:06:49.652Z,19.00
2018-10-09T12:09:18.843Z,19.00
2018-10-09T12:11:47.116Z,19.20
2018-10-09T12:14:15.396Z,19.10
2018-10-09T12:16:44.180Z,19.10
2018-10-09T12:19:12.995Z,19.00
2018-10-09T12:21:41.306Z,18.90
2018-10-09T12:24:09.596Z,18.90
2018-10-09T12:26:37.894Z,18.90
2018-10-09T12:29:06.588Z,19.00
2018-10-09T12:31:34.867Z,19.10
2018-10-09T12:34:03.120Z,19.40
2018-10-09T12:36:32.581Z,19.20
2018-10-09T12:39:00.811Z,19.20
2018-10-09T12:41:29.170Z,19.40
2018-10-09T12:43:57.513Z,19.50
2018-10-09T12:46:26.081Z,19.40
2018-10-09T12:48:54.342Z,19.50
2018-10-09T12:51:22.589Z,19.50
2018-10-09T12:53:51.655Z,19.40
2018-10-09T12:56:19.905Z,19.40
2018-10-09T12:58:48.187Z,19.40
2018-10-09T13:01:16.490Z,19.40
2018-10-09T13:03:45.175Z,19.20
2018-10-09T13:08:35.990Z,19.50
2018-10-09T13:11:04.290Z,19.50
2018-10-09T13:13:32.532Z,19.40
2018-10-09T13:16:01.701Z,19.20
2018-10-09T13:18:30.054Z,19.10
2018-10-09T13:20:58.353Z,19.20
2018-10-09T13:23:26.634Z,19.30
2018-10-09T13:25:54.930Z,19.40
2018-10-09T13:28:23.656Z,19.30
2018-10-09T13:30:51.962Z,19.10
2018-10-09T13:33:20.216Z,19.30
2018-10-09T13:35:48.971Z,19.30
2018-10-09T13:38:17.299Z,19.10
2018-10-09T13:40:45.577Z,18.90
2018-10-09T13:43:13.878Z,18.70
2018-10-09T13:45:42.146Z,18.90
2018-10-09T13:48:10.810Z,19.00
2018-10-09T13:50:39.116Z,19.10
2018-10-09T13:53:07.427Z,19.10
2018-10-09T13:55:35.741Z,19.20
2018-10-09T13:58:04.062Z,19.20
2018-10-09T14:00:33.073Z,19.30
2018-10-09T14:03:01.962Z,19.20
2018-10-09T14:05:30.203Z,19.10
2018-10-09T14:07:58.887Z,19.10
2018-10-09T14:10:27.152Z,19.00
2018-10-09T14:12:55.493Z,19.00
2018-10-09T14:15:24.404Z,18.90
2018-10-09T14:17:52.682Z,18.90
2018-10-09T14:20:21.043Z,18.50
2018-10-09T14:22:49.505Z,18.50
2018-10-09T14:25:17.621Z,18.30
2018-10-09T14:27:46.370Z,18.30
2018-10-09T14:30:14.769Z,18.20
2018-10-09T14:32:43.035Z,18.20
2018-10-09T14:35:11.935Z,18.10
2018-10-09T14:37:40.191Z,18.00
2018-10-09T14:40:08.462Z,17.90
2018-10-09T14:42:36.783Z,17.80
2018-10-09T14:45:05.288Z,17.70
2018-10-09T14:47:33.619Z,17.70
2018-10-09T14:50:01.913Z,17.70
2018-10-09T14:52:30.216Z,17.70
2018-10-09T14:54:59.110Z,17.70
2018-10-09T14:57:27.400Z,17.70
2018-10-09T14:59:55.647Z,17.60
2018-10-09T15:02:24.236Z,17.60
2018-10-09T15:04:52.540Z,17.60
2018-10-09T15:07:21.374Z,17.70
2018-10-09T15:09:49.649Z,17.60
2018-10-09T15:12:17.946Z,17.60
2018-10-09T15:14:46.296Z,17.60
2018-10-09T15:17:15.227Z,17.50
2018-10-09T15:19:43.642Z,17.50
2018-10-09T15:22:12.434Z,17.40
2018-10-09T15:24:40.705Z,17.40
2018-10-09T15:27:09.494Z,17.30
2018-10-09T15:29:37.750Z,17.30
2018-10-09T15:32:06.076Z,17.30
2018-10-09T15:34:34.562Z,17.30
2018-10-09T15:37:02.824Z,17.20
2018-10-09T15:39:31.097Z,17.10
2018-10-09T15:41:59.932Z,17.10
2018-10-09T15:44:28.289Z,17.10
2018-10-09T15:46:57.750Z,17.00
2018-10-09T15:49:26.095Z,17.00
2018-10-09T15:51:54.404Z,16.90
2018-10-09T15:54:22.722Z,16.90
2018-10-09T15:56:51.042Z,16.80
2018-10-09T15:59:19.518Z,16.90
2018-10-09T16:01:48.543Z,16.80
2018-10-09T16:04:18.363Z,16.80
2018-10-09T16:06:46.513Z,16.70
2018-10-09T16:09:15.284Z,16.70
2018-10-09T16:11:43.635Z,16.60
2018-10-09T16:14:11.935Z,16.60
2018-10-09T16:16:40.797Z,16.50
2018-10-09T16:19:09.501Z,16.50
2018-10-09T16:21:38.073Z,16.40
2018-10-09T16:24:06.400Z,16.40
2018-10-09T16:26:34.726Z,16.40
2018-10-09T16:29:03.617Z,16.40
2018-10-09T16:31:32.398Z,16.40
2018-10-09T16:34:01.144Z,16.30
2018-10-09T16:36:29.464Z,16.20
2018-10-09T16:38:58.044Z,16.10
2018-10-09T16:41:26.754Z,16.10
2018-10-09T16:43:55.374Z,16.00
2018-10-09T16:46:23.683Z,16.00
2018-10-09T16:48:52.029Z,15.90
2018-10-09T16:51:20.307Z,15.90
2018-10-09T16:53:48.574Z,15.80
2018-10-09T16:56:16.966Z,15.80
2018-10-09T16:58:45.254Z,15.80
2018-10-09T17:01:13.568Z,15.70
2018-10-09T17:03:42.084Z,15.70
2018-10-09T17:06:10.371Z,15.60
2018-10-09T17:08:39.258Z,15.60
2018-10-09T17:11:08.283Z,15.50
2018-10-09T17:13:36.635Z,15.50
2018-10-09T17:16:05.288Z,15.50
2018-10-09T17:18:33.593Z,15.50
2018-10-09T17:21:01.916Z,15.40
2018-10-09T17:23:30.376Z,15.30
2018-10-09T17:25:58.678Z,15.30
2018-10-09T17:28:27.203Z,15.20
2018-10-09T17:30:55.750Z,15.20
2018-10-09T17:33:24.610Z,15.20
2018-10-09T17:35:53.278Z,15.20
2018-10-09T17:38:21.548Z,15.10
2018-10-09T17:40:49.843Z,15.10
2018-10-09T17:43:18.427Z,15.10
2018-10-09T17:45:46.675Z,15.10
2018-10-09T17:48:14.944Z,15.00
2018-10-09T17:50:43.222Z,15.10
2018-10-09T17:53:11.511Z,15.00
2018-10-09T17:55:39.839Z,14.90
2018-10-09T17:58:08.103Z,14.90
2018-10-09T18:00:36.375Z,14.80
2018-10-09T18:03:05.149Z,14.80
2018-10-09T18:05:33.382Z,14.80
2018-10-09T18:08:02.107Z,14.80
2018-10-09T18:10:30.346Z,14.70
2018-10-09T18:12:58.642Z,14.70
2018-10-09T18:15:27.386Z,14.70
2018-10-09T18:17:55.970Z,14.70
2018-10-09T18:20:24.862Z,14.70
2018-10-09T18:22:53.052Z,14.70
2018-10-09T18:25:21.350Z,14.70
2018-10-09T18:27:50.404Z,14.70
2018-10-09T18:30:18.698Z,14.60
2018-10-09T18:32:47.618Z,14.60
2018-10-09T18:35:16.190Z,14.60
2018-10-09T18:37:44.970Z,14.60
2018-10-09T18:40:13.254Z,14.60
2018-10-09T18:42:42.027Z,14.50
2018-10-09T18:45:10.348Z,14.50
2018-10-09T18:47:43.487Z,14.50
2018-10-09T18:50:12.582Z,14.50
2018-10-09T18:52:41.378Z,14.40
2018-10-09T18:55:11.333Z,14.50
2018-10-09T18:57:39.630Z,14.40
2018-10-09T19:00:08.636Z,14.40
2018-10-09T19:02:37.771Z,14.30
2018-10-09T19:05:06.758Z,14.30
2018-10-09T19:07:35.486Z,14.30
2018-10-09T19:10:04.226Z,14.30
2018-10-09T19:12:32.485Z,14.30
2018-10-09T19:15:01.832Z,14.20
2018-10-09T19:17:30.461Z,14.20
2018-10-09T19:19:58.956Z,14.10
2018-10-09T19:22:27.238Z,14.10
2018-10-09T19:24:55.673Z,14.10
2018-10-09T19:27:24.180Z,14.00
2018-10-09T19:29:52.482Z,14.00
2018-10-09T19:32:21.127Z,14.00
2018-10-09T19:34:50.113Z,14.00
2018-10-09T19:37:18.404Z,14.10
2018-10-09T19:39:47.839Z,14.00
2018-10-09T19:42:16.545Z,14.00
2018-10-09T19:44:45.422Z,13.90
2018-10-09T19:47:14.082Z,13.90
2018-10-09T19:49:43.249Z,13.90
2018-10-09T19:52:11.535Z,13.80
2018-10-09T19:54:40.394Z,13.80
2018-10-09T19:57:09.141Z,13.80
2018-10-09T19:59:37.416Z,13.80
2018-10-09T20:02:07.937Z,13.80
2018-10-09T20:04:36.446Z,13.80
2018-10-09T20:07:04.706Z,13.80
2018-10-09T20:09:33.253Z,13.80
2018-10-09T20:12:01.561Z,13.70
2018-10-09T20:14:30.428Z,13.70
2018-10-09T20:16:59.233Z,13.60
2018-10-09T20:19:27.512Z,13.60
2018-10-09T20:21:55.790Z,13.60
2018-10-09T20:24:24.108Z,13.60
2018-10-09T20:26:52.399Z,13.50
2018-10-09T20:29:21.068Z,13.50
2018-10-09T20:31:49.722Z,13.50
2018-10-09T20:34:18.401Z,13.50
2018-10-09T20:36:47.086Z,13.40
2018-10-09T20:39:15.411Z,13.40
2018-10-09T20:41:44.139Z,13.40
2018-10-09T20:44:12.442Z,13.30
2018-10-09T20:46:40.718Z,13.30
2018-10-09T20:49:09.107Z,13.30
2018-10-09T20:51:37.777Z,13.20
2018-10-09T20:54:06.126Z,13.20
2018-10-09T20:56:34.419Z,13.20
2018-10-09T20:59:02.942Z,13.20
2018-10-09T21:01:31.193Z,13.20
2018-10-09T21:03:59.757Z,13.20
2018-10-09T21:06:28.422Z,13.10
2018-10-09T21:08:57.947Z,13.10
2018-10-09T21:11:26.234Z,13.00
2018-10-09T21:13:54.538Z,13.00
2018-10-09T21:16:23.154Z,13.00
2018-10-09T21:18:51.973Z,12.90
2018-10-09T21:21:20.274Z,12.90
2018-10-09T21:23:48.563Z,12.90
2018-10-09T21:26:17.338Z,12.90
2018-10-09T21:28:46.090Z,12.80
2018-10-09T21:31:14.898Z,12.80
2018-10-09T21:33:43.174Z,12.80
2018-10-09T21:36:11.726Z,12.70
2018-10-09T21:38:40.484Z,12.70
2018-10-09T21:41:08.821Z,12.60
2018-10-09T21:43:37.233Z,12.40
2018-10-09T21:46:05.593Z,12.40
2018-10-09T21:48:33.905Z,12.40
2018-10-09T21:51:02.274Z,12.30
2018-10-09T21:53:30.690Z,12.40
2018-10-09T21:55:58.973Z,12.40
2018-10-09T21:58:27.665Z,12.40
2018-10-09T22:01:01.735Z,12.30
2018-10-09T22:03:30.441Z,12.20
2018-10-09T22:05:58.721Z,12.20
2018-10-09T22:10:49.289Z,12.20
2018-10-09T22:13:18.366Z,12.30
2018-10-09T22:15:47.177Z,12.20
2018-10-09T22:18:15.494Z,12.10
2018-10-09T22:20:43.784Z,12.20
2018-10-09T22:23:12.271Z,12.10
2018-10-09T22:25:40.682Z,12.10
2018-10-09T22:28:10.137Z,12.20
2018-10-09T22:30:38.796Z,12.00
2018-10-09T22:33:07.535Z,12.00
2018-10-09T22:35:36.408Z,12.00
2018-10-09T22:38:05.296Z,12.00
2018-10-09T22:40:33.690Z,12.00
2018-10-09T22:43:03.029Z,11.90
2018-10-09T22:45:31.645Z,12.00
2018-10-09T22:48:00.148Z,11.90
2018-10-09T22:50:29.052Z,11.90
2018-10-09T22:52:57.636Z,11.80
2018-10-09T22:55:25.934Z,11.80
2018-10-09T23:00:27.049Z,11.80
2018-10-09T23:02:55.633Z,11.90
2018-10-09T23:05:24.332Z,11.90
2018-10-09T23:07:53.590Z,11.90
2018-10-09T23:10:21.907Z,11.80
2018-10-09T23:12:50.245Z,11.70
2018-10-09T23:15:18.550Z,11.60
2018-10-09T23:17:47.153Z,11.60
2018-10-09T23:20:15.635Z,11.50
2018-10-09T23:22:43.911Z,11.50
2018-10-09T23:25:12.898Z,11.50
2018-10-09T23:27:41.635Z,11.50
2018-10-09T23:30:10.434Z,11.50
2018-10-09T23:32:39.123Z,11.60
2018-10-09T23:35:07.747Z,11.50
2018-10-09T23:37:36.487Z,11.50
2018-10-09T23:40:04.798Z,11.50
2018-10-09T23:42:33.397Z,11.50
2018-10-09T23:45:02.054Z,11.40
2018-10-09T23:47:30.326Z,11.40
2018-10-09T23:49:58.651Z,11.30
2018-10-09T23:52:27.096Z,11.30
2018-10-09T23:54:55.394Z,11.30
2018-10-09T23:57:24.687Z,11.30
2018-10-09T23:59:53.271Z,11.30
